Time;durP1;ratioP1;P1;durP2;ratioP2;P2;SDS_P1;SDS_P2;PMS_P1;PMS_P2;Temp;Humidity;BMP_temperature;BMP_pressure;BME280_temperature;BME280_humidity;BME280_pressure;Samples;Min_cycle;Max_cycle;Signal;HPM_P1;HPM_P2
2023/05/12 00:01:26;;;;;;;6.32;2.40;;;13.40;52.20;;;;;;4772848;30;20075;-92
2023/05/12 00:03:53;;;;;;;5.00;2.35;;;13.30;52.00;;;;;;4772756;30;20086;-92
2023/05/12 00:06:20;;;;;;;7.32;2.22;;;13.20;52.20;;;;;;4772621;30;20090;-92
2023/05/12 00:08:47;;;;;;;6.80;2.42;;;13.30;52.40;;;;;;4772638;30;20055;-92
2023/05/12 00:11:14;;;;;;;5.60;2.20;;;13.30;52.60;;;;;;4781930;29;20454;-92
2023/05/12 00:13:43;;;;;;;8.75;2.00;;;13.30;53.20;;;;;;4787379;30;20424;-92
2023/05/12 00:16:10;;;;;;;6.28;2.45;;;13.30;52.60;;;;;;4787357;30;20484;-92
2023/05/12 00:18:37;;;;;;;5.85;1.85;;;13.20;53.20;;;;;;4787257;30;20206;-90
2023/05/12 00:21:07;;;;;;;5.57;2.20;;;13.20;52.70;;;;;;4787350;30;20506;-92
2023/05/12 00:23:34;;;;;;;4.23;2.03;;;13.10;54.10;;;;;;4786995;30;20115;-93
2023/05/12 00:26:01;;;;;;;6.72;2.30;;;13.10;54.40;;;;;;4787177;30;20051;-92
2023/05/12 00:28:30;;;;;;;7.43;2.47;;;13.00;54.20;;;;;;4787303;30;20537;-92
2023/05/12 00:31:02;;;;;;;8.32;2.33;;;13.00;54.10;;;;;;4786838;30;20142;-92
2023/05/12 00:33:30;;;;;;;5.07;2.30;;;13.00;54.70;;;;;;4787224;30;20056;-93
2023/05/12 00:35:59;;;;;;;5.73;2.43;;;12.90;55.90;;;;;;4786847;30;20453;-92
2023/05/12 00:38:26;;;;;;;6.03;2.75;;;12.70;55.90;;;;;;4786999;30;20051;-92
2023/05/12 00:40:53;;;;;;;5.43;2.17;;;12.60;56.40;;;;;;4786927;30;20534;-92
2023/05/12 00:43:20;;;;;;;6.22;2.50;;;12.60;56.40;;;;;;4786686;30;20056;-91
2023/05/12 00:45:47;;;;;;;6.28;2.30;;;12.50;56.80;;;;;;4786869;30;20043;-92
2023/05/12 00:48:15;;;;;;;5.83;2.57;;;12.40;57.50;;;;;;4786973;30;20047;-93
2023/05/12 00:50:42;;;;;;;5.25;1.90;;;12.20;57.10;;;;;;4786928;30;20052;-92
2023/05/12 00:53:09;;;;;;;7.13;2.92;;;12.20;56.60;;;;;;4786607;30;20059;-93
2023/05/12 00:55:36;;;;;;;5.35;2.20;;;12.40;56.30;;;;;;4786662;30;20055;-93
2023/05/12 00:58:04;;;;;;;5.22;2.22;;;12.40;57.30;;;;;;4786028;29;20109;-92
2023/05/12 01:00:33;;;;;;;5.47;2.10;;;12.30;57.00;;;;;;4786646;30;20055;-92
2023/05/12 01:03:00;;;;;;;5.63;2.22;;;12.30;56.50;;;;;;4786695;30;20463;-92
2023/05/12 01:05:35;;;;;;;6.57;2.58;;;12.30;56.30;;;;;;4786437;30;20054;-92
2023/05/12 01:08:03;;;;;;;6.65;2.63;;;12.30;56.30;;;;;;4786436;30;20078;-92
2023/05/12 01:10:30;;;;;;;5.72;2.55;;;12.20;56.20;;;;;;4786345;29;20056;-92
2023/05/12 01:12:57;;;;;;;7.90;2.20;;;12.20;55.70;;;;;;4786647;30;20059;-92
2023/05/12 01:15:24;;;;;;;6.93;2.05;;;12.10;56.30;;;;;;4786409;30;20075;-91
2023/05/12 01:17:56;;;;;;;7.55;2.40;;;12.10;56.70;;;;;;4786239;30;20052;-92
2023/05/12 01:20:25;;;;;;;6.30;2.10;;;12.00;56.70;;;;;;4786255;30;20082;-92
2023/05/12 01:22:54;;;;;;;5.00;2.22;;;12.00;56.50;;;;;;4786974;30;20048;-92
2023/05/12 01:25:23;;;;;;;7.00;2.50;;;12.00;57.60;;;;;;4786263;30;20052;-92
2023/05/12 01:27:51;;;;;;;5.47;2.15;;;11.90;57.80;;;;;;4786088;30;20081;-92
2023/05/12 01:30:21;;;;;;;6.18;2.50;;;11.90;57.40;;;;;;4785993;30;20079;-92
2023/05/12 01:32:50;;;;;;;6.45;2.33;;;11.80;58.20;;;;;;4786252;30;20467;-92
2023/05/12 01:35:18;;;;;;;5.50;2.35;;;11.70;58.60;;;;;;4786152;30;20051;-92
2023/05/12 01:37:55;;;;;;;6.20;2.30;;;11.50;58.00;;;;;;4786163;30;20151;-91
2023/05/12 01:40:22;;;;;;;5.07;2.17;;;11.50;58.40;;;;;;4785888;30;20125;-92
2023/05/12 01:42:50;;;;;;;7.90;2.30;;;11.20;59.80;;;;;;4785928;30;20075;-91
2023/05/12 01:45:17;;;;;;;5.55;2.25;;;11.00;59.80;;;;;;4786002;30;20468;-92
2023/05/12 01:47:46;;;;;;;7.32;2.30;;;10.90;60.20;;;;;;4785973;30;20059;-92
2023/05/12 01:50:13;;;;;;;5.70;2.00;;;10.80;60.50;;;;;;4785805;30;20500;-91
2023/05/12 01:52:40;;;;;;;6.00;2.40;;;10.80;60.40;;;;;;4785769;30;20048;-92
2023/05/12 01:55:11;;;;;;;5.57;2.55;;;10.70;61.50;;;;;;4785992;30;20596;-92
2023/05/12 01:57:58;;;;;;;6.50;2.45;;;10.70;60.80;;;;;;4782895;30;20112;-92
2023/05/12 02:00:26;;;;;;;5.05;2.08;;;10.60;61.60;;;;;;4785678;30;20052;-92
2023/05/12 02:02:55;;;;;;;6.10;2.30;;;10.50;61.80;;;;;;4785509;30;20051;-92
2023/05/12 02:05:22;;;;;;;6.68;2.53;;;10.50;62.10;;;;;;4785724;30;20515;-91
2023/05/12 02:07:49;;;;;;;6.78;2.47;;;10.40;62.20;;;;;;4785578;30;20048;-91
2023/05/12 02:10:17;;;;;;;6.82;2.03;;;10.40;62.20;;;;;;4784509;29;20055;-91
2023/05/12 02:12:44;;;;;;;5.85;2.40;;;10.50;62.10;;;;;;4785518;30;20052;-91
2023/05/12 02:15:12;;;;;;;6.53;2.57;;;10.40;62.60;;;;;;4785598;30;20058;-90
2023/05/12 02:17:44;;;;;;;6.70;2.58;;;10.30;62.40;;;;;;4785455;30;20056;-91
2023/05/12 02:20:13;;;;;;;6.38;2.60;;;10.40;62.50;;;;;;4785271;30;20073;-91
2023/05/12 02:22:42;;;;;;;7.45;2.65;;;10.40;62.50;;;;;;4785149;30;20058;-92
2023/05/12 02:25:09;;;;;;;8.45;2.38;;;10.30;62.80;;;;;;4785183;30;20055;-91
2023/05/12 02:27:36;;;;;;;5.50;2.27;;;10.20;62.40;;;;;;4785264;30;20055;-91
2023/05/12 02:30:04;;;;;;;6.43;2.67;;;10.30;62.80;;;;;;4785285;30;20058;-92
2023/05/12 02:32:32;;;;;;;5.78;2.35;;;10.30;62.60;;;;;;4785132;30;20044;-91
2023/05/12 02:34:59;;;;;;;8.43;2.30;;;10.30;62.50;;;;;;4785067;30;20048;-91
2023/05/12 02:37:26;;;;;;;6.00;2.30;;;10.30;62.60;;;;;;4785248;30;20511;-92
2023/05/12 02:39:53;;;;;;;7.07;2.40;;;10.20;62.70;;;;;;4785089;30;20051;-92
2023/05/12 02:42:20;;;;;;;6.40;2.25;;;10.20;62.60;;;;;;4785176;30;20500;-91
2023/05/12 02:44:48;;;;;;;7.32;2.35;;;10.10;62.80;;;;;;4784846;30;20049;-91
2023/05/12 02:47:15;;;;;;;6.50;2.47;;;10.00;63.00;;;;;;4785137;30;20066;-91
2023/05/12 02:49:42;;;;;;;8.23;2.63;;;10.00;63.10;;;;;;4785198;30;20055;-91
2023/05/12 02:52:09;;;;;;;6.03;2.33;;;10.00;63.20;;;;;;4785108;30;20066;-92
2023/05/12 02:54:36;;;;;;;7.50;2.45;;;9.90;63.50;;;;;;4785041;30;20055;-91
2023/05/12 02:57:04;;;;;;;7.65;3.05;;;9.80;63.80;;;;;;4784621;30;20056;-92
2023/05/12 02:59:31;;;;;;;5.90;2.15;;;9.80;63.90;;;;;;4784933;30;20052;-92
2023/05/12 03:01:58;;;;;;;5.75;2.30;;;9.70;64.10;;;;;;4785018;30;20475;-91
2023/05/12 03:04:26;;;;;;;6.37;2.60;;;9.70;63.40;;;;;;4785007;30;20052;-91
2023/05/12 03:06:53;;;;;;;6.93;2.30;;;9.70;63.70;;;;;;4784860;30;20047;-91
2023/05/12 03:09:23;;;;;;;7.25;2.35;;;9.60;63.40;;;;;;4784531;30;20047;-91
2023/05/12 03:11:53;;;;;;;6.63;1.80;;;9.60;62.80;;;;;;4784565;29;20063;-91
2023/05/12 03:14:20;;;;;;;6.93;2.15;;;9.70;61.70;;;;;;4784937;30;20056;-91
2023/05/12 03:16:47;;;;;;;5.07;1.87;;;9.90;62.40;;;;;;4784930;30;20056;-92
2023/05/12 03:19:14;;;;;;;4.35;1.70;;;9.90;61.10;;;;;;4784733;30;20051;-91
2023/05/12 03:21:41;;;;;;;6.07;1.98;;;10.00;59.80;;;;;;4786454;29;20047;-91
2023/05/12 03:24:08;;;;;;;6.32;1.90;;;10.10;60.00;;;;;;4788155;30;20055;-91
2023/05/12 03:26:35;;;;;;;5.70;2.28;;;10.20;59.20;;;;;;4788181;30;20052;-92
2023/05/12 03:29:02;;;;;;;7.37;2.30;;;10.20;59.40;;;;;;4788356;30;20048;-91
2023/05/12 03:35:20;;;;;;;5.28;1.90;;;10.40;58.60;;;;;;4783492;30;20048;-95
2023/05/12 03:37:49;;;;;;;6.32;2.40;;;10.40;59.60;;;;;;4797904;30;20123;-93
2023/05/12 03:40:17;;;;;;;8.27;2.30;;;10.50;58.90;;;;;;4787815;30;20152;-92
2023/05/12 03:42:45;;;;;;;6.60;2.07;;;10.40;58.80;;;;;;4787825;30;20121;-92
2023/05/12 03:45:12;;;;;;;5.38;1.80;;;10.40;59.00;;;;;;4787871;30;20051;-92
2023/05/12 03:47:40;;;;;;;6.28;2.13;;;10.40;59.20;;;;;;4799276;29;20051;-92
2023/05/12 03:50:07;;;;;;;8.15;2.47;;;10.40;58.90;;;;;;4801450;29;20115;-92
2023/05/12 03:52:37;;;;;;;6.38;1.92;;;10.50;59.70;;;;;;4787587;30;20466;-92
2023/05/12 03:55:05;;;;;;;5.63;2.50;;;10.50;59.00;;;;;;4787820;30;20529;-92
2023/05/12 03:57:35;;;;;;;6.55;2.20;;;10.50;59.80;;;;;;4787513;30;20055;-92
2023/05/12 04:00:06;;;;;;;5.90;2.30;;;10.50;59.50;;;;;;4787696;30;20090;-92
2023/05/12 04:02:42;;;;;;;20.67;3.47;;;10.50;58.30;;;;;;4787789;30;20063;-92
2023/05/12 04:05:09;;;;;;;25.30;3.28;;;10.60;58.50;;;;;;4787475;30;20124;-92
2023/05/12 04:07:37;;;;;;;11.87;2.33;;;10.60;59.20;;;;;;4787274;30;20071;-92
2023/05/12 04:10:04;;;;;;;14.55;2.53;;;10.60;60.30;;;;;;4787305;29;20060;-92
2023/05/12 04:12:31;;;;;;;7.03;1.70;;;10.60;59.60;;;;;;4787281;30;20080;-93
2023/05/12 04:14:59;;;;;;;6.85;2.15;;;10.60;59.60;;;;;;4787257;30;20146;-92
2023/05/12 04:17:26;;;;;;;7.13;2.30;;;10.60;60.20;;;;;;4787532;30;20052;-92
2023/05/12 04:19:53;;;;;;;5.67;2.20;;;10.70;60.40;;;;;;4787310;30;20154;-93
2023/05/12 04:22:20;;;;;;;10.38;2.42;;;10.70;60.40;;;;;;4787296;30;20056;-92
2023/05/12 04:24:51;;;;;;;5.82;2.10;;;10.70;59.90;;;;;;4787176;30;20052;-93
2023/05/12 04:27:20;;;;;;;6.13;2.20;;;10.80;60.00;;;;;;4787188;30;20043;-93
2023/05/12 04:29:47;;;;;;;4.68;2.00;;;11.00;60.70;;;;;;4787154;30;20078;-93
2023/05/12 04:32:14;;;;;;;6.20;1.80;;;11.00;61.50;;;;;;4786597;29;20051;-92
2023/05/12 04:34:42;;;;;;;9.05;2.40;;;11.10;61.30;;;;;;4786793;30;20055;-93
2023/05/12 04:37:09;;;;;;;8.30;2.55;;;11.20;61.70;;;;;;4786894;30;20067;-92
2023/05/12 04:39:36;;;;;;;8.18;2.63;;;11.30;61.80;;;;;;4787060;30;20060;-92
2023/05/12 04:42:04;;;;;;;7.53;2.80;;;11.40;61.40;;;;;;4787061;30;20508;-93
2023/05/12 04:44:33;;;;;;;10.00;3.00;;;11.50;61.50;;;;;;4787191;30;20495;-91
2023/05/12 04:47:00;;;;;;;8.15;3.33;;;11.60;61.20;;;;;;4786905;30;20047;-91
2023/05/12 04:49:29;;;;;;;10.60;3.70;;;11.80;60.00;;;;;;4786998;30;20067;-91
2023/05/12 04:51:56;;;;;;;9.77;3.50;;;11.90;59.80;;;;;;4787096;30;20074;-92
2023/05/12 04:54:23;;;;;;;9.25;3.47;;;12.00;59.20;;;;;;4786434;30;20051;-89
2023/05/12 04:56:50;;;;;;;11.60;3.80;;;12.20;58.70;;;;;;4786104;29;20046;-88
2023/05/12 04:59:17;;;;;;;8.35;3.20;;;12.50;58.50;;;;;;4786075;29;20492;-88
2023/05/12 05:01:46;;;;;;;9.95;3.63;;;12.60;58.50;;;;;;4785804;30;20059;-88
2023/05/12 05:04:14;;;;;;;7.93;3.33;;;12.80;57.80;;;;;;4785593;29;20071;-88
2023/05/12 05:06:41;;;;;;;10.50;2.58;;;13.00;56.90;;;;;;4770905;30;20052;-89
2023/05/12 05:09:08;;;;;;;7.17;2.30;;;13.20;56.60;;;;;;4786035;30;20052;-88
2023/05/12 05:11:35;;;;;;;9.43;2.67;;;13.30;55.50;;;;;;4788433;29;20075;-88
2023/05/12 05:14:02;;;;;;;7.75;2.85;;;13.50;56.10;;;;;;4785773;30;20047;-88
2023/05/12 05:16:31;;;;;;;6.22;2.50;;;13.60;55.30;;;;;;4785509;29;20109;-88
2023/05/12 05:18:58;;;;;;;8.05;2.70;;;13.80;55.40;;;;;;4785321;29;20103;-88
2023/05/12 05:21:25;;;;;;;7.43;2.50;;;14.00;55.40;;;;;;4785246;30;20515;-89
2023/05/12 05:23:52;;;;;;;9.32;2.67;;;14.10;54.10;;;;;;4785547;29;20098;-88
2023/05/12 05:26:20;;;;;;;9.98;2.97;;;14.20;54.50;;;;;;4785273;29;20051;-90
2023/05/12 05:28:47;;;;;;;6.55;2.40;;;14.30;54.50;;;;;;4785578;30;20560;-89
2023/05/12 05:31:16;;;;;;;6.03;2.90;;;14.50;53.10;;;;;;4785718;30;20040;-89
2023/05/12 05:33:43;;;;;;;6.93;2.53;;;14.50;52.90;;;;;;4785547;30;20584;-89
2023/05/12 05:36:11;;;;;;;6.75;2.40;;;14.60;53.20;;;;;;4790274;29;20048;-89
2023/05/12 05:38:38;;;;;;;9.38;2.60;;;14.80;52.60;;;;;;4785455;29;20138;-88
2023/05/12 05:41:06;;;;;;;7.00;2.17;;;15.00;52.10;;;;;;4786023;30;20050;-90
2023/05/12 05:43:33;;;;;;;8.23;2.40;;;15.10;51.00;;;;;;4785153;29;20051;-89
2023/05/12 05:46:00;;;;;;;7.23;2.30;;;15.30;50.80;;;;;;4785746;30;20047;-88
2023/05/12 05:48:30;;;;;;;7.43;2.40;;;15.40;50.60;;;;;;4785488;29;20071;-89
2023/05/12 05:50:57;;;;;;;7.28;2.78;;;15.50;50.60;;;;;;4785191;30;20051;-89
2023/05/12 05:53:24;;;;;;;7.40;2.17;;;15.70;49.80;;;;;;4784854;29;20051;-89
2023/05/12 05:55:52;;;;;;;4.75;1.88;;;15.90;49.00;;;;;;4784206;30;20047;-89
2023/05/12 05:58:19;;;;;;;5.10;1.93;;;16.00;49.70;;;;;;4784932;29;20047;-89
2023/05/12 06:00:46;;;;;;;5.25;2.30;;;16.10;47.30;;;;;;4785065;30;20040;-89
2023/05/12 06:03:13;;;;;;;4.65;1.90;;;16.20;47.20;;;;;;4785130;30;20130;-89
2023/05/12 06:05:42;;;;;;;4.70;1.88;;;16.30;47.10;;;;;;4784903;30;20082;-89
2023/05/12 06:08:12;;;;;;;8.20;1.98;;;16.30;47.00;;;;;;4784992;30;20052;-89
2023/05/12 06:10:42;;;;;;;5.27;2.20;;;16.30;46.40;;;;;;4769846;30;20057;-89
2023/05/12 06:13:09;;;;;;;7.28;2.10;;;16.20;47.50;;;;;;4784290;29;20044;-89
2023/05/12 06:15:37;;;;;;;6.38;2.35;;;16.30;47.00;;;;;;4784538;30;20150;-89
2023/05/12 06:18:04;;;;;;;7.20;2.40;;;16.40;46.80;;;;;;4784290;30;20055;-89
2023/05/12 06:20:31;;;;;;;6.10;1.92;;;16.60;47.60;;;;;;4785082;29;20059;-89
2023/05/12 06:22:58;;;;;;;6.03;2.27;;;16.60;47.30;;;;;;4786863;29;20056;-91
2023/05/12 06:25:25;;;;;;;5.22;2.40;;;16.60;46.50;;;;;;4784980;29;20458;-90
2023/05/12 06:27:52;;;;;;;7.63;2.10;;;16.70;47.10;;;;;;4784762;30;20101;-90
2023/05/12 06:30:19;;;;;;;7.10;2.25;;;16.90;47.10;;;;;;4784526;30;20040;-90
2023/05/12 06:32:47;;;;;;;7.57;2.42;;;17.10;47.10;;;;;;4784958;29;20047;-90
2023/05/12 06:35:14;;;;;;;5.90;1.93;;;17.30;46.40;;;;;;4784658;30;20068;-91
2023/05/12 06:37:48;;;;;;;4.80;2.08;;;17.40;47.20;;;;;;4784678;30;20051;-89
2023/05/12 06:40:16;;;;;;;5.65;2.33;;;17.50;45.80;;;;;;4784746;30;20051;-90
2023/05/12 06:42:43;;;;;;;7.00;2.20;;;17.60;45.90;;;;;;4787621;29;20058;-90
2023/05/12 06:45:15;;;;;;;5.13;2.35;;;17.70;46.40;;;;;;4787834;29;20058;-90
2023/05/12 06:47:42;;;;;;;6.50;2.43;;;17.90;46.60;;;;;;4769897;30;20060;-89
2023/05/12 06:50:09;;;;;;;4.82;2.00;;;17.90;44.60;;;;;;4784501;29;20101;-90
2023/05/12 06:52:36;;;;;;;7.05;2.42;;;18.00;44.60;;;;;;4781405;29;20135;-90
2023/05/12 06:55:04;;;;;;;6.95;2.13;;;18.00;43.30;;;;;;4784435;30;20055;-90
2023/05/12 06:57:31;;;;;;;8.88;2.08;;;18.10;44.40;;;;;;4785037;29;20059;-90
2023/05/12 06:59:59;;;;;;;4.77;1.97;;;18.30;44.70;;;;;;4791460;29;20511;-91
2023/05/12 07:02:26;;;;;;;5.25;1.40;;;18.40;44.50;;;;;;4794451;29;20052;-91
2023/05/12 07:04:53;;;;;;;4.80;1.50;;;18.50;42.90;;;;;;4784817;30;20124;-91
2023/05/12 07:07:21;;;;;;;6.80;1.35;;;18.60;43.70;;;;;;4784749;30;20077;-91
2023/05/12 07:09:48;;;;;;;5.43;1.60;;;18.60;41.50;;;;;;4786270;29;20047;-90
2023/05/12 07:12:15;;;;;;;4.23;1.10;;;18.70;42.90;;;;;;4769517;30;20044;-91
2023/05/12 07:14:42;;;;;;;2.83;1.10;;;18.80;42.10;;;;;;4769242;30;20153;-91
2023/05/12 07:17:09;;;;;;;3.45;1.05;;;18.90;42.20;;;;;;4769381;30;20047;-92
2023/05/12 07:19:38;;;;;;;4.63;1.30;;;18.90;41.30;;;;;;4769469;30;20116;-90
2023/05/12 07:22:05;;;;;;;7.05;1.92;;;19.00;41.10;;;;;;4768783;30;20135;-91
2023/05/12 07:24:32;;;;;;;5.53;1.70;;;19.10;41.90;;;;;;4769535;30;20048;-91
2023/05/12 07:26:59;;;;;;;5.40;1.70;;;19.10;41.70;;;;;;4769326;30;20055;-91
2023/05/12 07:29:26;;;;;;;6.45;1.60;;;19.00;42.20;;;;;;4763440;30;20407;-90
2023/05/12 07:31:53;;;;;;;4.57;1.58;;;19.00;42.20;;;;;;4769231;30;20056;-91
2023/05/12 07:34:20;;;;;;;6.50;1.40;;;19.00;42.50;;;;;;4769452;30;20056;-90
2023/05/12 07:36:47;;;;;;;4.53;1.43;;;19.10;42.40;;;;;;4771713;30;20109;-91
2023/05/12 07:39:18;;;;;;;5.35;1.60;;;19.00;41.70;;;;;;4769237;30;20082;-91
2023/05/12 07:41:45;;;;;;;3.92;1.38;;;18.90;41.10;;;;;;4769422;30;20056;-91
2023/05/12 07:44:12;;;;;;;6.25;1.67;;;18.80;41.50;;;;;;4769191;30;20147;-90
2023/05/12 07:46:39;;;;;;;4.75;1.50;;;18.90;42.00;;;;;;4769205;30;20515;-91
2023/05/12 07:49:06;;;;;;;4.53;1.23;;;19.10;43.20;;;;;;4769387;30;20407;-90
2023/05/12 07:51:33;;;;;;;8.45;1.27;;;19.20;40.50;;;;;;4769208;30;20047;-91
2023/05/12 07:54:00;;;;;;;4.15;1.40;;;19.30;41.70;;;;;;4769646;30;20547;-91
2023/05/12 07:56:30;;;;;;;6.82;1.30;;;19.20;42.40;;;;;;4769207;30;20457;-91
2023/05/12 07:58:58;;;;;;;4.28;1.30;;;19.30;41.10;;;;;;4769141;30;20553;-91
2023/05/12 08:01:25;;;;;;;5.60;1.20;;;19.40;41.40;;;;;;4755465;30;20101;-90
2023/05/12 08:03:52;;;;;;;3.53;1.00;;;19.50;42.00;;;;;;4769352;30;20039;-91
2023/05/12 08:06:19;;;;;;;3.85;1.15;;;19.60;42.20;;;;;;4769128;30;20052;-91
2023/05/12 08:08:46;;;;;;;4.68;1.20;;;19.70;41.30;;;;;;4770844;30;20048;-91
2023/05/12 08:11:13;;;;;;;4.10;1.45;;;19.80;40.50;;;;;;4781456;29;20127;-91
2023/05/12 08:13:40;;;;;;;4.17;1.30;;;19.80;41.30;;;;;;4787263;30;20047;-90
2023/05/12 08:16:07;;;;;;;5.55;1.73;;;19.90;42.20;;;;;;4787195;29;20078;-90
2023/05/12 08:18:34;;;;;;;5.18;1.45;;;20.00;40.60;;;;;;4786899;29;20402;-91
2023/05/12 08:21:01;;;;;;;4.18;1.55;;;20.10;40.50;;;;;;4786959;30;20055;-90
2023/05/12 08:23:28;;;;;;;7.80;1.80;;;20.20;41.10;;;;;;4786898;29;20462;-90
2023/05/12 08:25:55;;;;;;;4.37;1.40;;;20.40;42.00;;;;;;4786787;29;20083;-90
2023/05/12 08:28:22;;;;;;;5.72;1.35;;;20.60;41.40;;;;;;4775842;29;20526;-91
2023/05/12 08:30:49;;;;;;;5.38;1.50;;;20.60;39.90;;;;;;4786790;30;20052;-91
2023/05/12 08:33:16;;;;;;;7.63;1.90;;;20.70;39.00;;;;;;4786885;30;20076;-91
2023/05/12 08:35:43;;;;;;;9.85;3.50;;;20.60;39.70;;;;;;4791102;29;20090;-90
2023/05/12 08:38:11;;;;;;;7.40;2.50;;;20.50;43.00;;;;;;4786947;29;20622;-90
2023/05/12 08:40:57;;;;;;;9.32;2.55;;;20.30;43.20;;;;;;4786317;29;20079;-90
2023/05/12 08:43:31;;;;;;;6.63;2.55;;;20.10;44.00;;;;;;4787004;29;20392;-91
2023/05/12 08:45:58;;;;;;;8.93;3.20;;;19.70;45.00;;;;;;4786444;29;20071;-91
2023/05/12 08:48:28;;;;;;;8.55;3.22;;;19.20;47.10;;;;;;4786651;30;20506;-90
2023/05/12 08:50:56;;;;;;;8.67;3.30;;;19.00;47.30;;;;;;4786240;30;20048;-90
2023/05/12 08:53:26;;;;;;;7.50;2.78;;;18.80;48.20;;;;;;4786781;29;20050;-90
2023/05/12 08:55:55;;;;;;;11.18;3.17;;;18.70;49.70;;;;;;4793835;29;20058;-90
2023/05/12 08:58:45;;;;;;;8.07;3.45;;;18.70;48.60;;;;;;4786491;30;20055;-90
2023/05/12 09:01:14;;;;;;;10.38;2.67;;;18.70;48.80;;;;;;4786405;30;20051;-90
2023/05/12 09:03:42;;;;;;;7.70;2.93;;;18.80;49.00;;;;;;4786296;30;20055;-91
2023/05/12 09:06:10;;;;;;;7.65;2.78;;;18.90;48.30;;;;;;4770955;30;20079;-91
2023/05/12 09:08:39;;;;;;;8.30;3.25;;;19.00;47.40;;;;;;4786261;30;20048;-91
2023/05/12 09:11:10;;;;;;;11.52;3.33;;;19.00;49.10;;;;;;4785977;30;20066;-90
2023/05/12 09:13:48;;;;;;;8.15;3.75;;;18.90;47.70;;;;;;4786049;29;20421;-90
2023/05/12 09:16:20;;;;;;;8.33;2.90;;;18.90;48.40;;;;;;4785945;30;20051;-90
2023/05/12 09:18:58;;;;;;;9.05;2.80;;;19.00;49.00;;;;;;4785659;29;20048;-91
2023/05/12 09:21:27;;;;;;;7.55;2.58;;;19.10;47.30;;;;;;4785835;30;20063;-90
2023/05/12 09:24:00;;;;;;;7.50;2.95;;;19.20;49.80;;;;;;4786135;30;20142;-90
2023/05/12 09:26:27;;;;;;;8.55;2.67;;;19.40;48.10;;;;;;4785790;30;20116;-91
2023/05/12 09:29:05;;;;;;;7.83;3.27;;;19.30;46.20;;;;;;4790948;29;20146;-91
2023/05/12 09:31:32;;;;;;;8.00;3.33;;;19.20;47.20;;;;;;4785725;30;20534;-91
2023/05/12 09:34:01;;;;;;;9.23;3.92;;;19.00;48.40;;;;;;4785794;30;20147;-91
2023/05/12 09:36:33;;;;;;;9.57;3.28;;;18.80;48.80;;;;;;4790321;29;20054;-90
2023/05/12 09:39:06;;;;;;;10.30;3.30;;;18.70;49.60;;;;;;4785661;29;20479;-91
2023/05/12 09:41:38;;;;;;;9.03;3.30;;;18.50;50.40;;;;;;4785751;30;20117;-91
2023/05/12 09:44:07;;;;;;;8.02;3.33;;;18.60;51.20;;;;;;4785680;30;20052;-90
2023/05/12 09:46:35;;;;;;;11.60;3.45;;;18.50;51.20;;;;;;4785132;30;20577;-91
2023/05/12 09:49:02;;;;;;;10.15;3.47;;;18.50;51.50;;;;;;4785414;30;20055;-90
2023/05/12 09:51:30;;;;;;;8.35;3.20;;;18.50;51.20;;;;;;4785383;29;20062;-90
2023/05/12 09:53:57;;;;;;;16.43;3.83;;;18.50;51.90;;;;;;4785741;30;20055;-90
2023/05/12 09:56:27;;;;;;;8.23;3.50;;;18.50;51.30;;;;;;4785495;29;20059;-90
2023/05/12 09:58:58;;;;;;;15.55;4.10;;;18.60;52.80;;;;;;4785499;29;20403;-91
2023/05/12 10:01:26;;;;;;;11.32;3.78;;;18.60;51.80;;;;;;4785460;30;20118;-90
2023/05/12 10:03:55;;;;;;;7.15;3.40;;;18.60;52.20;;;;;;4778187;30;20047;-90
2023/05/12 10:06:37;;;;;;;7.60;2.80;;;18.70;52.40;;;;;;4785504;29;20060;-91
2023/05/12 10:09:22;;;;;;;8.55;3.15;;;18.80;50.60;;;;;;4785072;30;20062;-91
2023/05/12 10:11:51;;;;;;;8.13;3.65;;;18.80;49.90;;;;;;4784769;29;20058;-91
2023/05/12 10:14:21;;;;;;;9.68;3.33;;;18.80;49.80;;;;;;4785144;30;20079;-90
2023/05/12 10:16:49;;;;;;;9.40;3.42;;;18.90;50.10;;;;;;4785013;29;20094;-91
2023/05/12 10:19:18;;;;;;;10.80;3.83;;;18.90;51.50;;;;;;4785257;30;20055;-90
2023/05/12 10:21:45;;;;;;;11.00;4.10;;;18.80;50.40;;;;;;4785399;30;20500;-91
2023/05/12 10:24:16;;;;;;;11.18;3.90;;;18.80;50.00;;;;;;4785590;29;20051;-90
2023/05/12 10:26:44;;;;;;;10.48;4.38;;;18.90;51.80;;;;;;4795446;29;20411;-90
2023/05/12 10:29:11;;;;;;;11.05;4.13;;;19.00;51.50;;;;;;4784819;30;20051;-91
2023/05/12 10:31:39;;;;;;;10.27;3.90;;;19.10;50.70;;;;;;4774483;29;20047;-90
2023/05/12 10:34:06;;;;;;;11.90;4.05;;;19.20;51.00;;;;;;4788441;29;20059;-90
2023/05/12 10:36:48;;;;;;;7.95;3.70;;;19.20;50.40;;;;;;4785014;29;20056;-91
2023/05/12 10:39:15;;;;;;;8.63;3.42;;;19.10;51.00;;;;;;4784791;30;20055;-90
2023/05/12 10:41:42;;;;;;;8.55;3.50;;;19.10;50.30;;;;;;4784685;30;20368;-91
2023/05/12 10:44:10;;;;;;;8.30;3.40;;;19.00;50.10;;;;;;4784516;30;20105;-91
2023/05/12 10:46:41;;;;;;;11.05;3.58;;;18.90;49.90;;;;;;4783728;29;20100;-90
2023/05/12 10:49:11;;;;;;;10.95;3.47;;;19.00;50.70;;;;;;4784660;30;20052;-90
2023/05/12 10:51:42;;;;;;;9.00;3.15;;;19.00;51.00;;;;;;4785018;29;20399;-90
2023/05/12 10:54:23;;;;;;;9.63;3.55;;;18.90;50.00;;;;;;4784540;29;20461;-90
2023/05/12 10:56:51;;;;;;;10.70;3.70;;;18.70;50.50;;;;;;4784531;30;20056;-90
2023/05/12 10:59:23;;;;;;;10.98;3.65;;;18.60;51.20;;;;;;4784547;30;20052;-90
2023/05/12 11:02:11;;;;;;;8.60;3.25;;;18.70;51.40;;;;;;4769771;30;20062;-91
2023/05/12 11:04:45;;;;;;;10.57;3.90;;;18.80;53.10;;;;;;4784412;30;20109;-90
2023/05/12 11:07:15;;;;;;;11.43;4.20;;;18.80;51.40;;;;;;4772045;29;20158;-90
2023/05/12 11:09:44;;;;;;;9.57;4.13;;;19.00;52.20;;;;;;4784386;29;20048;-90
2023/05/12 11:12:26;;;;;;;8.45;3.90;;;19.10;52.90;;;;;;4756444;30;20052;-90
2023/05/12 11:14:53;;;;;;;7.38;2.80;;;19.20;52.50;;;;;;4769296;30;20047;-91
2023/05/12 11:17:20;;;;;;;9.27;2.70;;;19.20;48.60;;;;;;4769364;30;20074;-91
2023/05/12 11:19:49;;;;;;;7.88;2.72;;;19.20;47.90;;;;;;4769508;30;20396;-89
2023/05/12 11:22:21;;;;;;;8.57;3.20;;;19.10;48.00;;;;;;4768799;30;20060;-90
2023/05/12 11:24:51;;;;;;;6.88;2.70;;;18.90;49.10;;;;;;4769409;30;20058;-91
2023/05/12 11:27:21;;;;;;;8.88;3.00;;;18.70;49.00;;;;;;4772469;30;20047;-90
2023/05/12 11:30:00;;;;;;;9.65;3.70;;;18.70;49.50;;;;;;4769558;30;20067;-90
2023/05/12 11:32:28;;;;;;;7.88;2.97;;;18.60;48.80;;;;;;4758001;30;20058;-90
2023/05/12 11:35:28;;;;;;;10.20;2.70;;;18.60;49.20;;;;;;4769441;30;20055;-90
2023/05/12 11:37:55;;;;;;;7.35;2.42;;;18.60;50.00;;;;;;4772522;29;20059;-90
2023/05/12 11:40:23;;;;;;;11.90;2.50;;;18.60;48.90;;;;;;4769328;30;20138;-90
2023/05/12 11:42:52;;;;;;;8.73;2.38;;;18.60;49.10;;;;;;4775584;29;20051;-90
2023/05/12 11:45:30;;;;;;;8.88;2.60;;;18.60;48.60;;;;;;4772866;30;20059;-90
2023/05/12 11:48:11;;;;;;;11.53;2.90;;;18.60;48.30;;;;;;4781291;29;20086;-90
2023/05/12 11:50:47;;;;;;;8.05;2.40;;;18.60;47.60;;;;;;4777985;30;20050;-89
2023/05/12 11:53:17;;;;;;;7.43;2.50;;;18.60;46.90;;;;;;4772629;30;20058;-90
2023/05/12 11:55:55;;;;;;;9.73;2.72;;;18.70;47.50;;;;;;4772848;30;20047;-89
2023/05/12 11:58:29;;;;;;;7.05;2.38;;;18.80;47.90;;;;;;4772360;30;20468;-89
2023/05/12 12:01:07;;;;;;;6.07;1.93;;;19.00;47.30;;;;;;4772105;30;20051;-89
2023/05/12 12:03:46;;;;;;;8.25;2.25;;;19.10;48.60;;;;;;4771949;30;20047;-89
2023/05/12 12:06:14;;;;;;;9.43;2.85;;;19.30;49.80;;;;;;4771679;30;20054;-90
2023/05/12 12:08:55;;;;;;;7.28;2.15;;;19.40;46.50;;;;;;4772176;30;20046;-89
2023/05/12 12:11:27;;;;;;;5.78;2.20;;;19.40;47.40;;;;;;4782415;29;20052;-89
2023/05/12 12:13:58;;;;;;;5.93;1.70;;;19.50;45.90;;;;;;4786999;29;20059;-89
2023/05/12 12:16:30;;;;;;;5.28;1.80;;;19.50;43.50;;;;;;4786733;29;20047;-90
2023/05/12 12:18:57;;;;;;;7.72;1.80;;;19.60;42.80;;;;;;4787083;29;20059;-90
2023/05/12 12:21:24;;;;;;;4.45;1.50;;;19.60;44.10;;;;;;4786820;29;20134;-90
2023/05/12 12:23:51;;;;;;;4.78;1.58;;;19.60;42.10;;;;;;4787015;29;20058;-90
2023/05/12 12:26:20;;;;;;;6.43;1.63;;;19.60;41.50;;;;;;4791231;29;20051;-90
2023/05/12 12:28:48;;;;;;;5.32;1.23;;;19.60;41.60;;;;;;4786968;30;20047;-89
2023/05/12 12:31:15;;;;;;;4.43;1.50;;;19.50;41.80;;;;;;4786674;30;20458;-89
2023/05/12 12:33:42;;;;;;;6.40;1.77;;;19.50;41.00;;;;;;4786776;29;20058;-90
2023/05/12 12:36:10;;;;;;;6.47;1.83;;;19.40;42.10;;;;;;4786685;30;20050;-89
2023/05/12 12:38:37;;;;;;;10.37;1.80;;;19.50;42.80;;;;;;4786285;30;20056;-89
2023/05/12 12:41:05;;;;;;;6.60;1.50;;;19.50;43.90;;;;;;4786523;29;20154;-89
2023/05/12 12:43:32;;;;;;;13.05;2.30;;;19.50;43.40;;;;;;4786224;30;20109;-89
2023/05/12 12:45:59;;;;;;;7.10;1.40;;;19.50;45.00;;;;;;4786514;30;20054;-89
2023/05/12 12:48:27;;;;;;;4.15;1.40;;;19.40;42.50;;;;;;4786156;30;20051;-90
2023/05/12 12:50:54;;;;;;;5.90;1.23;;;19.30;42.00;;;;;;4786903;30;20067;-90
2023/05/12 12:53:21;;;;;;;7.47;1.55;;;19.20;41.70;;;;;;4785937;29;20044;-89
2023/05/12 12:55:48;;;;;;;6.30;1.60;;;19.20;42.10;;;;;;4785954;30;20579;-89
2023/05/12 12:58:15;;;;;;;6.40;1.30;;;19.30;43.30;;;;;;4786808;29;20105;-90